sensor_id;sensor_type;location;lat;lon;timestamp;pressure;altitude;pressure_sealevel;temperature;humidity
78986;BME280;68384;55.750;48.746;2023-09-19T00:00:35;99537.09;;;9.73;77.99
78986;BME280;68384;55.750;48.746;2023-09-19T00:03:03;99549.19;;;9.74;78.26
78986;BME280;68384;55.750;48.746;2023-09-19T00:05:35;99539.72;;;9.75;78.29
78986;BME280;68384;55.750;48.746;2023-09-19T00:08:03;99543.91;;;9.71;78.56
78986;BME280;68384;55.750;48.746;2023-09-19T00:10:33;99546.44;;;9.68;78.61
78986;BME280;68384;55.750;48.746;2023-09-19T00:13:03;99551.44;;;9.63;79.02
78986;BME280;68384;55.750;48.746;2023-09-19T00:15:46;99561.66;;;9.59;79.35
78986;BME280;68384;55.750;48.746;2023-09-19T00:18:18;99553.00;;;9.57;79.83
78986;BME280;68384;55.750;48.746;2023-09-19T00:20:48;99557.31;;;9.58;79.84
78986;BME280;68384;55.750;48.746;2023-09-19T00:23:17;99560.00;;;9.61;80.08
78986;BME280;68384;55.750;48.746;2023-09-19T00:25:48;99564.25;;;9.59;80.93
78986;BME280;68384;55.750;48.746;2023-09-19T00:28:16;99565.97;;;9.58;81.40
78986;BME280;68384;55.750;48.746;2023-09-19T00:30:45;99571.94;;;9.56;81.39
78986;BME280;68384;55.750;48.746;2023-09-19T00:33:18;99563.19;;;9.52;82.15
78986;BME280;68384;55.750;48.746;2023-09-19T00:35:51;99575.16;;;9.49;81.22
78986;BME280;68384;55.750;48.746;2023-09-19T00:38:20;99575.16;;;9.49;82.05
78986;BME280;68384;55.750;48.746;2023-09-19T00:40:50;99570.91;;;9.51;82.06
78986;BME280;68384;55.750;48.746;2023-09-19T00:43:23;99573.44;;;9.49;82.20
78986;BME280;68384;55.750;48.746;2023-09-19T00:45:54;99575.16;;;9.49;82.35
78986;BME280;68384;55.750;48.746;2023-09-19T00:48:23;99577.81;;;9.52;81.75
78986;BME280;68384;55.750;48.746;2023-09-19T00:50:59;99573.53;;;9.52;81.27
78986;BME280;68384;55.750;48.746;2023-09-19T00:53:30;99573.53;;;9.52;81.39
78986;BME280;68384;55.750;48.746;2023-09-19T00:55:57;99577.13;;;9.57;80.89
78986;BME280;68384;55.750;48.746;2023-09-19T00:58:26;99577.09;;;9.56;80.90
78986;BME280;68384;55.750;48.746;2023-09-19T01:01:01;99577.81;;;9.52;80.60
78986;BME280;68384;55.750;48.746;2023-09-19T01:03:31;99584.97;;;9.59;80.39
78986;BME280;68384;55.750;48.746;2023-09-19T01:05:59;99583.00;;;9.52;80.54
78986;BME280;68384;55.750;48.746;2023-09-19T01:08:27;99583.88;;;9.52;80.34
78986;BME280;68384;55.750;48.746;2023-09-19T01:11:03;99590.81;;;9.53;80.43
78986;BME280;68384;55.750;48.746;2023-09-19T01:16:22;99580.25;;;9.47;80.38
78986;BME280;68384;55.750;48.746;2023-09-19T01:28:26;99601.09;;;9.52;80.08
78986;BME280;68384;55.750;48.746;2023-09-19T01:30:57;99594.13;;;9.49;80.07
78986;BME280;68384;55.750;48.746;2023-09-19T01:33:27;99604.66;;;9.54;80.29
78986;BME280;68384;55.750;48.746;2023-09-19T01:35:54;99608.00;;;9.51;80.19
78986;BME280;68384;55.750;48.746;2023-09-19T01:38:26;99600.28;;;9.53;80.63
78986;BME280;68384;55.750;48.746;2023-09-19T01:41:06;99603.63;;;9.49;80.62
78986;BME280;68384;55.750;48.746;2023-09-19T01:43:41;99595.78;;;9.47;80.51
78986;BME280;68384;55.750;48.746;2023-09-19T01:46:18;99606.28;;;9.52;80.50
78986;BME280;68384;55.750;48.746;2023-09-19T01:48:57;99602.97;;;9.56;80.40
78986;BME280;68384;55.750;48.746;2023-09-19T01:51:46;99599.47;;;9.54;80.38
78986;BME280;68384;55.750;48.746;2023-09-19T01:54:19;99609.91;;;9.57;80.16
78986;BME280;68384;55.750;48.746;2023-09-19T01:57:01;99607.44;;;9.60;80.25
78986;BME280;68384;55.750;48.746;2023-09-19T02:00:01;99612.53;;;9.58;79.86
78986;BME280;68384;55.750;48.746;2023-09-19T02:02:43;99622.13;;;9.61;79.56
78986;BME280;68384;55.750;48.746;2023-09-19T02:05:12;99623.78;;;9.59;79.74
78986;BME280;68384;55.750;48.746;2023-09-19T02:07:39;99624.38;;;9.52;80.25
78986;BME280;68384;55.750;48.746;2023-09-19T02:10:07;99628.06;;;9.58;80.37
78986;BME280;68384;55.750;48.746;2023-09-19T02:12:37;99628.88;;;9.57;79.76
78986;BME280;68384;55.750;48.746;2023-09-19T02:15:05;99631.47;;;9.57;80.41
78986;BME280;68384;55.750;48.746;2023-09-19T02:17:34;99640.13;;;9.58;80.19
78986;BME280;68384;55.750;48.746;2023-09-19T02:23:13;99628.66;;;9.50;80.73
78986;BME280;68384;55.750;48.746;2023-09-19T02:36:19;99649.06;;;9.41;81.23
78986;BME280;68384;55.750;48.746;2023-09-19T02:38:47;99654.16;;;9.39;81.36
78986;BME280;68384;55.750;48.746;2023-09-19T02:41:15;99654.13;;;9.38;81.47
78986;BME280;68384;55.750;48.746;2023-09-19T02:43:42;99653.28;;;9.39;81.38
78986;BME280;68384;55.750;48.746;2023-09-19T02:46:18;99660.13;;;9.37;81.42
78986;BME280;68384;55.750;48.746;2023-09-19T02:48:46;99640.84;;;9.27;81.57
78986;BME280;68384;55.750;48.746;2023-09-19T02:51:21;99668.03;;;9.41;81.43
78986;BME280;68384;55.750;48.746;2023-09-19T02:54:00;99674.16;;;9.43;81.30
78986;BME280;68384;55.750;48.746;2023-09-19T02:56:30;99665.97;;;9.31;81.11
78986;BME280;68384;55.750;48.746;2023-09-19T02:59:00;99671.09;;;9.30;80.92
78986;BME280;68384;55.750;48.746;2023-09-19T03:01:28;99676.19;;;9.28;81.48
78986;BME280;68384;55.750;48.746;2023-09-19T03:06:48;99685.06;;;9.35;81.61
78986;BME280;68384;55.750;48.746;2023-09-19T03:09:18;99677.31;;;9.35;81.74
78986;BME280;68384;55.750;48.746;2023-09-19T03:11:46;99681.03;;;9.43;81.46
78986;BME280;68384;55.750;48.746;2023-09-19T03:14:14;99689.59;;;9.42;81.34
78986;BME280;68384;55.750;48.746;2023-09-19T03:16:53;99684.53;;;9.45;80.99
78986;BME280;68384;55.750;48.746;2023-09-19T03:19:24;99693.09;;;9.42;81.11
78986;BME280;68384;55.750;48.746;2023-09-19T03:22:09;99699.25;;;9.46;80.95
78986;BME280;68384;55.750;48.746;2023-09-19T03:27:48;99690.50;;;9.42;80.54
78986;BME280;68384;55.750;48.746;2023-09-19T03:30:16;99694.19;;;9.49;80.78
78986;BME280;68384;55.750;48.746;2023-09-19T03:35:52;99699.84;;;9.39;80.22
78986;BME280;68384;55.750;48.746;2023-09-19T03:38:21;99689.50;;;9.39;80.41
78986;BME280;68384;55.750;48.746;2023-09-19T03:40:49;99702.72;;;9.46;80.45
78986;BME280;68384;55.750;48.746;2023-09-19T03:43:16;99693.19;;;9.45;80.66
78986;BME280;68384;55.750;48.746;2023-09-19T03:45:44;99719.38;;;9.54;80.64
78986;BME280;68384;55.750;48.746;2023-09-19T03:48:13;99715.91;;;9.54;80.19
78986;BME280;68384;55.750;48.746;2023-09-19T03:50:41;99710.75;;;9.54;79.72
78986;BME280;68384;55.750;48.746;2023-09-19T03:53:10;99716.31;;;9.66;79.52
78986;BME280;68384;55.750;48.746;2023-09-19T03:55:38;99727.69;;;9.71;79.61
78986;BME280;68384;55.750;48.746;2023-09-19T03:58:06;99702.81;;;9.49;79.43
78986;BME280;68384;55.750;48.746;2023-09-19T04:00:58;99732.63;;;9.63;79.33
78986;BME280;68384;55.750;48.746;2023-09-19T04:03:27;99718.28;;;9.48;79.12
78986;BME280;68384;55.750;48.746;2023-09-19T04:06:28;99742.69;;;9.54;79.37
78986;BME280;68384;55.750;48.746;2023-09-19T04:08:56;99732.34;;;9.54;79.36
78986;BME280;68384;55.750;48.746;2023-09-19T04:14:23;99733.00;;;9.49;78.95
78986;BME280;68384;55.750;48.746;2023-09-19T04:19:58;99742.28;;;9.44;79.36
78986;BME280;68384;55.750;48.746;2023-09-19T04:22:29;99711.72;;;9.32;79.72
78986;BME280;68384;55.750;48.746;2023-09-19T04:27:34;99728.06;;;9.31;79.12
78986;BME280;68384;55.750;48.746;2023-09-19T04:30:01;99748.75;;;9.31;79.52
78986;BME280;68384;55.750;48.746;2023-09-19T04:32:31;99748.91;;;9.36;79.75
78986;BME280;68384;55.750;48.746;2023-09-19T04:35:03;99760.78;;;9.31;80.12
78986;BME280;68384;55.750;48.746;2023-09-19T04:40:18;99754.91;;;9.35;79.66
78986;BME280;68384;55.750;48.746;2023-09-19T04:42:53;99759.16;;;9.33;79.82
78986;BME280;68384;55.750;48.746;2023-09-19T04:45:24;99759.91;;;9.54;79.11
78986;BME280;68384;55.750;48.746;2023-09-19T04:47:52;99758.56;;;9.65;78.67
78986;BME280;68384;55.750;48.746;2023-09-19T04:50:20;99757.13;;;9.73;77.45
78986;BME280;68384;55.750;48.746;2023-09-19T04:52:52;99757.34;;;9.79;77.60
78986;BME280;68384;55.750;48.746;2023-09-19T04:55:20;99756.06;;;9.93;76.40
78986;BME280;68384;55.750;48.746;2023-09-19T04:57:50;99762.31;;;9.98;75.72
78986;BME280;68384;55.750;48.746;2023-09-19T05:00:19;99762.38;;;10.01;75.17
78986;BME280;68384;55.750;48.746;2023-09-19T05:02:51;99758.16;;;10.03;75.26
78986;BME280;68384;55.750;48.746;2023-09-19T05:05:19;99752.81;;;9.99;75.18
78986;BME280;68384;55.750;48.746;2023-09-19T05:07:47;99762.13;;;10.19;74.38
78986;BME280;68384;55.750;48.746;2023-09-19T05:10:15;99782.25;;;10.27;73.50
78986;BME280;68384;55.750;48.746;2023-09-19T05:12:46;99775.88;;;10.18;73.78
78986;BME280;68384;55.750;48.746;2023-09-19T05:15:14;99769.78;;;10.16;73.45
78986;BME280;68384;55.750;48.746;2023-09-19T05:17:42;99772.91;;;10.32;72.61
78986;BME280;68384;55.750;48.746;2023-09-19T05:20:14;99778.44;;;10.43;72.96
78986;BME280;68384;55.750;48.746;2023-09-19T05:23:01;99770.31;;;10.32;72.77
78986;BME280;68384;55.750;48.746;2023-09-19T05:25:31;99802.16;;;10.55;72.10
78986;BME280;68384;55.750;48.746;2023-09-19T05:27:59;99778.16;;;10.61;71.61
78986;BME280;68384;55.750;48.746;2023-09-19T05:30:35;99791.94;;;10.60;71.23
78986;BME280;68384;55.750;48.746;2023-09-19T05:33:14;99789.88;;;10.76;70.81
78986;BME280;68384;55.750;48.746;2023-09-19T05:35:42;99803.84;;;10.80;69.88
78986;BME280;68384;55.750;48.746;2023-09-19T05:38:09;99800.63;;;10.88;69.79
78986;BME280;68384;55.750;48.746;2023-09-19T05:40:37;99804.34;;;10.97;69.62
78986;BME280;68384;55.750;48.746;2023-09-19T05:43:06;99809.59;;;11.00;68.62
78986;BME280;68384;55.750;48.746;2023-09-19T05:45:34;99816.78;;;11.08;67.83
78986;BME280;68384;55.750;48.746;2023-09-19T05:48:11;99814.78;;;11.00;67.63
78986;BME280;68384;55.750;48.746;2023-09-19T05:50:42;99813.75;;;10.93;67.93
78986;BME280;68384;55.750;48.746;2023-09-19T05:53:12;99807.28;;;10.80;67.58
78986;BME280;68384;55.750;48.746;2023-09-19T05:55:45;99801.56;;;10.91;66.11
78986;BME280;68384;55.750;48.746;2023-09-19T05:58:15;99805.38;;;11.03;64.86
78986;BME280;68384;55.750;48.746;2023-09-19T06:00:48;99802.06;;;11.07;63.96
78986;BME280;68384;55.750;48.746;2023-09-19T06:03:31;99805.97;;;11.23;63.88
78986;BME280;68384;55.750;48.746;2023-09-19T06:06:02;99799.97;;;11.24;62.52
78986;BME280;68384;55.750;48.746;2023-09-19T06:08:30;99777.31;;;11.18;63.33
78986;BME280;68384;55.750;48.746;2023-09-19T06:10:58;99799.50;;;11.38;63.13
78986;BME280;68384;55.750;48.746;2023-09-19T06:13:29;99824.44;;;11.33;62.87
78986;BME280;68384;55.750;48.746;2023-09-19T06:15:57;99806.47;;;11.39;62.72
78986;BME280;68384;55.750;48.746;2023-09-19T06:18:25;99817.38;;;11.28;61.99
78986;BME280;68384;55.750;48.746;2023-09-19T06:20:53;99809.97;;;11.12;61.91
78986;BME280;68384;55.750;48.746;2023-09-19T06:23:21;99809.19;;;11.14;62.31
78986;BME280;68384;55.750;48.746;2023-09-19T06:25:48;99816.47;;;11.27;62.67
78986;BME280;68384;55.750;48.746;2023-09-19T06:28:15;99812.06;;;11.23;61.66
78986;BME280;68384;55.750;48.746;2023-09-19T06:30:45;99821.44;;;11.18;61.87
78986;BME280;68384;55.750;48.746;2023-09-19T06:33:13;99821.34;;;11.15;62.12
78986;BME280;68384;55.750;48.746;2023-09-19T06:35:45;99825.16;;;11.28;61.71
78986;BME280;68384;55.750;48.746;2023-09-19T06:38:14;99816.78;;;11.38;61.17
78986;BME280;68384;55.750;48.746;2023-09-19T06:40:42;99822.06;;;11.41;60.35
78986;BME280;68384;55.750;48.746;2023-09-19T06:43:10;99824.97;;;11.52;59.62
78986;BME280;68384;55.750;48.746;2023-09-19T06:45:38;99824.03;;;11.49;55.02
78986;BME280;68384;55.750;48.746;2023-09-19T06:48:06;99813.06;;;11.60;55.24
78986;BME280;68384;55.750;48.746;2023-09-19T06:50:34;99829.19;;;11.79;55.34
78986;BME280;68384;55.750;48.746;2023-09-19T06:53:03;99828.91;;;12.00;54.68
78986;BME280;68384;55.750;48.746;2023-09-19T06:55:30;99830.28;;;12.19;54.09
78986;BME280;68384;55.750;48.746;2023-09-19T06:57:59;99834.97;;;12.33;54.62
78986;BME280;68384;55.750;48.746;2023-09-19T07:00:27;99836.81;;;12.37;53.56
78986;BME280;68384;55.750;48.746;2023-09-19T07:05:32;99828.97;;;12.70;52.29
78986;BME280;68384;55.750;48.746;2023-09-19T07:08:00;99818.84;;;12.82;51.57
78986;BME280;68384;55.750;48.746;2023-09-19T07:10:30;99827.94;;;13.01;50.29
78986;BME280;68384;55.750;48.746;2023-09-19T07:13:02;99815.69;;;12.97;50.57
78986;BME280;68384;55.750;48.746;2023-09-19T07:15:33;99817.72;;;13.10;48.52
78986;BME280;68384;55.750;48.746;2023-09-19T07:18:06;99820.53;;;13.19;48.19
78986;BME280;68384;55.750;48.746;2023-09-19T07:20:36;99825.03;;;13.26;48.27
78986;BME280;68384;55.750;48.746;2023-09-19T07:23:04;99813.19;;;13.40;47.94
78986;BME280;68384;55.750;48.746;2023-09-19T07:25:31;99809.88;;;13.47;47.56
78986;BME280;68384;55.750;48.746;2023-09-19T07:27:59;99815.25;;;13.56;47.44
78986;BME280;68384;55.750;48.746;2023-09-19T07:30:29;99822.16;;;13.54;47.66
78986;BME280;68384;55.750;48.746;2023-09-19T07:32:57;99815.22;;;13.53;47.82
78986;BME280;68384;55.750;48.746;2023-09-19T07:35:25;99821.16;;;13.48;48.05
78986;BME280;68384;55.750;48.746;2023-09-19T07:37:53;99831.47;;;13.43;47.51
78986;BME280;68384;55.750;48.746;2023-09-19T07:40:20;99832.28;;;13.41;47.51
78986;BME280;68384;55.750;48.746;2023-09-19T07:42:48;99841.34;;;13.19;48.24
78986;BME280;68384;55.750;48.746;2023-09-19T07:45:16;99834.41;;;13.19;46.80
78986;BME280;68384;55.750;48.746;2023-09-19T07:47:45;99835.97;;;13.11;47.33
78986;BME280;68384;55.750;48.746;2023-09-19T07:54:22;99833.09;;;12.99;46.82
78986;BME280;68384;55.750;48.746;2023-09-19T07:56:49;99830.91;;;12.80;46.75
78986;BME280;68384;55.750;48.746;2023-09-19T07:59:17;99832.59;;;12.77;47.17
78986;BME280;68384;55.750;48.746;2023-09-19T08:01:44;99832.59;;;12.77;47.53
78986;BME280;68384;55.750;48.746;2023-09-19T08:04:11;99827.66;;;12.89;47.15
78986;BME280;68384;55.750;48.746;2023-09-19T08:06:39;99829.50;;;12.93;46.87
78986;BME280;68384;55.750;48.746;2023-09-19T08:09:06;99821.91;;;13.03;47.07
78986;BME280;68384;55.750;48.746;2023-09-19T08:11:36;99809.22;;;13.18;46.87
78986;BME280;68384;55.750;48.746;2023-09-19T08:14:03;99814.66;;;13.29;46.98
78986;BME280;68384;55.750;48.746;2023-09-19T08:16:33;99827.75;;;13.32;47.03
78986;BME280;68384;55.750;48.746;2023-09-19T08:19:00;99831.91;;;13.24;46.83
78986;BME280;68384;55.750;48.746;2023-09-19T08:21:27;99836.75;;;13.07;46.68
78986;BME280;68384;55.750;48.746;2023-09-19T08:23:56;99826.97;;;12.97;46.91
78986;BME280;68384;55.750;48.746;2023-09-19T08:26:24;99831.97;;;12.88;47.20
78986;BME280;68384;55.750;48.746;2023-09-19T08:28:51;99823.03;;;12.77;46.92
78986;BME280;68384;55.750;48.746;2023-09-19T08:31:20;99827.31;;;12.74;46.22
78986;BME280;68384;55.750;48.746;2023-09-19T08:33:48;99829.09;;;12.76;46.08
78986;BME280;68384;55.750;48.746;2023-09-19T08:36:17;99829.84;;;12.72;46.79
78986;BME280;68384;55.750;48.746;2023-09-19T08:38:44;99820.56;;;12.82;46.92
78986;BME280;68384;55.750;48.746;2023-09-19T08:41:11;99839.84;;;12.91;46.67
78986;BME280;68384;55.750;48.746;2023-09-19T08:43:39;99833.75;;;12.89;46.37
78986;BME280;68384;55.750;48.746;2023-09-19T08:48:39;99827.56;;;12.86;47.11
78986;BME280;68384;55.750;48.746;2023-09-19T08:51:07;99824.16;;;12.88;47.15
78986;BME280;68384;55.750;48.746;2023-09-19T08:53:41;99831.31;;;12.97;46.91
78986;BME280;68384;55.750;48.746;2023-09-19T08:56:10;99835.47;;;12.89;47.74
78986;BME280;68384;55.750;48.746;2023-09-19T08:58:44;99826.66;;;12.84;47.71
78986;BME280;68384;55.750;48.746;2023-09-19T09:01:17;99814.63;;;12.89;47.46
78986;BME280;68384;55.750;48.746;2023-09-19T09:03:53;99821.00;;;13.01;47.72
78986;BME280;68384;55.750;48.746;2023-09-19T09:06:21;99822.06;;;13.11;47.26
78986;BME280;68384;55.750;48.746;2023-09-19T09:08:52;99835.31;;;13.20;47.66
78986;BME280;68384;55.750;48.746;2023-09-19T09:11:20;99837.09;;;13.22;47.14
78986;BME280;68384;55.750;48.746;2023-09-19T09:13:48;99827.44;;;13.17;46.14
78986;BME280;68384;55.750;48.746;2023-09-19T09:16:16;99825.72;;;13.17;46.77
78986;BME280;68384;55.750;48.746;2023-09-19T09:18:47;99824.06;;;13.22;46.84
78986;BME280;68384;55.750;48.746;2023-09-19T09:21:21;99811.19;;;13.29;46.56
78986;BME280;68384;55.750;48.746;2023-09-19T09:23:49;99821.03;;;13.42;46.09
78986;BME280;68384;55.750;48.746;2023-09-19T09:26:41;99809.94;;;13.52;46.00
78986;BME280;68384;55.750;48.746;2023-09-19T09:29:10;99811.38;;;13.36;44.79
78986;BME280;68384;55.750;48.746;2023-09-19T09:31:38;99811.56;;;13.45;44.46
78986;BME280;68384;55.750;48.746;2023-09-19T09:34:05;99822.16;;;13.54;45.05
78986;BME280;68384;55.750;48.746;2023-09-19T09:36:38;99821.44;;;13.61;43.52
78986;BME280;68384;55.750;48.746;2023-09-19T09:39:06;99818.91;;;13.64;44.54
78986;BME280;68384;55.750;48.746;2023-09-19T09:41:43;99817.00;;;13.57;44.89
78986;BME280;68384;55.750;48.746;2023-09-19T09:44:15;99802.06;;;13.49;45.33
78986;BME280;68384;55.750;48.746;2023-09-19T09:46:44;99812.75;;;13.62;44.95
78986;BME280;68384;55.750;48.746;2023-09-19T09:49:27;99806.94;;;13.75;44.79
78986;BME280;68384;55.750;48.746;2023-09-19T09:52:04;99806.34;;;13.90;44.46
78986;BME280;68384;55.750;48.746;2023-09-19T09:55:00;99809.03;;;13.95;43.98
78986;BME280;68384;55.750;48.746;2023-09-19T09:57:29;99811.81;;;14.04;43.63
78986;BME280;68384;55.750;48.746;2023-09-19T09:59:58;99815.25;;;14.01;43.46
78986;BME280;68384;55.750;48.746;2023-09-19T10:02:38;99819.50;;;13.98;43.48
78986;BME280;68384;55.750;48.746;2023-09-19T10:05:19;99812.50;;;13.94;43.17
78986;BME280;68384;55.750;48.746;2023-09-19T10:07:49;99800.53;;;14.05;43.47
78986;BME280;68384;55.750;48.746;2023-09-19T10:13:14;99793.25;;;14.36;43.00
78986;BME280;68384;55.750;48.746;2023-09-19T10:15:49;99799.47;;;14.44;42.96
78986;BME280;68384;55.750;48.746;2023-09-19T10:18:26;99811.81;;;14.52;42.12
78986;BME280;68384;55.750;48.746;2023-09-19T10:20:57;99798.88;;;14.59;42.01
78986;BME280;68384;55.750;48.746;2023-09-19T10:23:26;99797.00;;;14.52;42.54
78986;BME280;68384;55.750;48.746;2023-09-19T10:25:57;99796.16;;;14.53;42.53
78986;BME280;68384;55.750;48.746;2023-09-19T10:28:27;99800.41;;;14.47;42.46
78986;BME280;68384;55.750;48.746;2023-09-19T10:30:57;99811.56;;;14.38;42.35
78986;BME280;68384;55.750;48.746;2023-09-19T10:33:26;99796.75;;;14.38;42.33
78986;BME280;68384;55.750;48.746;2023-09-19T10:36:04;99787.97;;;14.32;42.60
78986;BME280;68384;55.750;48.746;2023-09-19T10:38:33;99795.22;;;14.48;42.45
78986;BME280;68384;55.750;48.746;2023-09-19T10:41:03;99787.56;;;14.59;42.16
78986;BME280;68384;55.750;48.746;2023-09-19T10:43:33;99791.16;;;14.65;42.06
78986;BME280;68384;55.750;48.746;2023-09-19T10:46:07;99778.34;;;14.82;41.97
78986;BME280;68384;55.750;48.746;2023-09-19T10:48:35;99783.16;;;15.15;41.26
78986;BME280;68384;55.750;48.746;2023-09-19T10:51:08;99789.44;;;15.30;40.78
78986;BME280;68384;55.750;48.746;2023-09-19T10:53:59;99785.31;;;15.50;39.97
78986;BME280;68384;55.750;48.746;2023-09-19T10:56:39;99791.66;;;15.72;39.47
78986;BME280;68384;55.750;48.746;2023-09-19T10:59:15;99784.81;;;15.83;39.73
78986;BME280;68384;55.750;48.746;2023-09-19T11:01:47;99785.00;;;16.00;39.13
78986;BME280;68384;55.750;48.746;2023-09-19T11:04:32;99785.13;;;16.13;38.79
78986;BME280;68384;55.750;48.746;2023-09-19T11:09:50;99783.63;;;16.44;38.11
78986;BME280;68384;55.750;48.746;2023-09-19T11:15:03;99781.47;;;17.05;37.02
78986;BME280;68384;55.750;48.746;2023-09-19T11:17:42;99775.47;;;17.39;37.34
78986;BME280;68384;55.750;48.746;2023-09-19T11:30:46;99787.94;;;18.08;35.15
78986;BME280;68384;55.750;48.746;2023-09-19T11:33:23;99784.44;;;18.06;34.63
78986;BME280;68384;55.750;48.746;2023-09-19T11:36:10;99785.31;;;18.08;33.96
78986;BME280;68384;55.750;48.746;2023-09-19T11:43:52;99796.75;;;18.42;33.87
78986;BME280;68384;55.750;48.746;2023-09-19T11:46:32;99787.09;;;18.68;33.04
78986;BME280;68384;55.750;48.746;2023-09-19T11:49:07;99784.44;;;18.85;33.23
78986;BME280;68384;55.750;48.746;2023-09-19T11:51:42;99779.97;;;19.22;32.60
78986;BME280;68384;55.750;48.746;2023-09-19T11:54:12;99787.72;;;19.56;32.26
78986;BME280;68384;55.750;48.746;2023-09-19T11:56:46;99784.03;;;19.91;31.57
78986;BME280;68384;55.750;48.746;2023-09-19T11:59:21;99787.41;;;20.12;30.71
78986;BME280;68384;55.750;48.746;2023-09-19T12:01:51;99790.03;;;20.17;31.34
78986;BME280;68384;55.750;48.746;2023-09-19T12:07:07;99773.66;;;19.63;31.89
78986;BME280;68384;55.750;48.746;2023-09-19T12:10:04;99779.00;;;19.51;31.69
78986;BME280;68384;55.750;48.746;2023-09-19T12:12:33;99769.31;;;19.58;31.40
78986;BME280;68384;55.750;48.746;2023-09-19T12:15:00;99778.94;;;19.60;31.87
78986;BME280;68384;55.750;48.746;2023-09-19T12:17:36;99783.25;;;19.72;31.93
78986;BME280;68384;55.750;48.746;2023-09-19T12:20:05;99792.03;;;19.73;31.28
78986;BME280;68384;55.750;48.746;2023-09-19T12:22:46;99784.94;;;19.90;31.52
78986;BME280;68384;55.750;48.746;2023-09-19T12:25:14;99794.44;;;20.04;31.15
78986;BME280;68384;55.750;48.746;2023-09-19T12:27:47;99790.81;;;20.30;30.91
78986;BME280;68384;55.750;48.746;2023-09-19T12:30:15;99792.41;;;20.49;30.19
78986;BME280;68384;55.750;48.746;2023-09-19T12:32:48;99790.47;;;20.67;30.11
78986;BME280;68384;55.750;48.746;2023-09-19T12:35:46;99789.63;;;20.65;30.30
78986;BME280;68384;55.750;48.746;2023-09-19T12:38:27;99794.25;;;20.38;30.82
78986;BME280;68384;55.750;48.746;2023-09-19T12:41:03;99790.16;;;19.93;31.16
78986;BME280;68384;55.750;48.746;2023-09-19T12:43:31;99786.06;;;19.36;32.27
78986;BME280;68384;55.750;48.746;2023-09-19T12:46:04;99785.31;;;18.90;32.70
78986;BME280;68384;55.750;48.746;2023-09-19T12:48:32;99785.34;;;18.60;33.63
78986;BME280;68384;55.750;48.746;2023-09-19T12:51:05;99781.81;;;18.18;34.22
78986;BME280;68384;55.750;48.746;2023-09-19T12:53:44;99787.91;;;17.87;35.33
78986;BME280;68384;55.750;48.746;2023-09-19T12:56:17;99786.97;;;17.55;35.36
78986;BME280;68384;55.750;48.746;2023-09-19T12:58:56;99791.16;;;17.24;35.77
78986;BME280;68384;55.750;48.746;2023-09-19T13:01:26;99798.00;;;16.95;36.75
78986;BME280;68384;55.750;48.746;2023-09-19T13:04:30;99795.19;;;16.70;37.29
78986;BME280;68384;55.750;48.746;2023-09-19T13:06:59;99793.91;;;16.20;38.31
78986;BME280;68384;55.750;48.746;2023-09-19T13:09:28;99792.09;;;16.11;38.76
78986;BME280;68384;55.750;48.746;2023-09-19T13:12:03;99790.19;;;15.94;38.85
78986;BME280;68384;55.750;48.746;2023-09-19T13:14:31;99785.63;;;15.76;39.44
78986;BME280;68384;55.750;48.746;2023-09-19T13:17:05;99792.44;;;15.62;39.49
78986;BME280;68384;55.750;48.746;2023-09-19T13:19:48;99808.03;;;15.56;40.04
78986;BME280;68384;55.750;48.746;2023-09-19T13:25:08;99800.72;;;15.28;40.28
78986;BME280;68384;55.750;48.746;2023-09-19T13:27:42;99794.56;;;15.23;40.33
78986;BME280;68384;55.750;48.746;2023-09-19T13:30:12;99797.81;;;15.07;41.22
78986;BME280;68384;55.750;48.746;2023-09-19T13:32:41;99792.44;;;14.96;41.92
78986;BME280;68384;55.750;48.746;2023-09-19T13:35:11;99793.28;;;14.93;41.97
78986;BME280;68384;55.750;48.746;2023-09-19T13:37:41;99794.91;;;14.85;41.67
78986;BME280;68384;55.750;48.746;2023-09-19T13:40:14;99785.22;;;14.77;41.73
78986;BME280;68384;55.750;48.746;2023-09-19T13:42:43;99792.19;;;14.79;41.57
78986;BME280;68384;55.750;48.746;2023-09-19T13:45:10;99789.56;;;14.76;41.95
78986;BME280;68384;55.750;48.746;2023-09-19T13:47:40;99793.88;;;14.73;41.78
78986;BME280;68384;55.750;48.746;2023-09-19T13:50:13;99790.38;;;14.71;41.43
78986;BME280;68384;55.750;48.746;2023-09-19T13:52:46;99784.97;;;14.60;40.91
78986;BME280;68384;55.750;48.746;2023-09-19T13:55:19;99783.94;;;14.49;41.23
78986;BME280;68384;55.750;48.746;2023-09-19T13:57:50;99778.44;;;14.35;41.40
78986;BME280;68384;55.750;48.746;2023-09-19T14:00:22;99772.34;;;14.33;41.97
78986;BME280;68384;55.750;48.746;2023-09-19T14:02:50;99787.13;;;14.34;42.11
78986;BME280;68384;55.750;48.746;2023-09-19T14:05:19;99791.41;;;14.29;42.65
78986;BME280;68384;55.750;48.746;2023-09-19T14:07:48;99788.72;;;14.25;42.60
78986;BME280;68384;55.750;48.746;2023-09-19T14:10:15;99791.25;;;14.20;43.51
78986;BME280;68384;55.750;48.746;2023-09-19T14:12:45;99786.81;;;14.15;43.75
78986;BME280;68384;55.750;48.746;2023-09-19T14:15:13;99781.47;;;14.09;43.83
78986;BME280;68384;55.750;48.746;2023-09-19T14:17:41;99778.75;;;14.01;43.80
78986;BME280;68384;55.750;48.746;2023-09-19T14:20:10;99773.41;;;13.94;43.95
78986;BME280;68384;55.750;48.746;2023-09-19T14:22:37;99773.28;;;13.86;44.06
78986;BME280;68384;55.750;48.746;2023-09-19T14:25:06;99780.16;;;13.84;44.14
78986;BME280;68384;55.750;48.746;2023-09-19T14:27:33;99774.00;;;13.79;44.14
78986;BME280;68384;55.750;48.746;2023-09-19T14:30:01;99759.94;;;13.69;44.36
78986;BME280;68384;55.750;48.746;2023-09-19T14:32:29;99775.63;;;13.72;44.61
78986;BME280;68384;55.750;48.746;2023-09-19T14:34:57;99772.88;;;13.65;44.62
78986;BME280;68384;55.750;48.746;2023-09-19T14:37:24;99771.00;;;13.58;44.53
78986;BME280;68384;55.750;48.746;2023-09-19T14:39:52;99777.94;;;13.57;44.89